sensor_id;sensor_type;location;lat;lon;timestamp;temperature;humidity
68450;SHT30;55434;39.570;2.652;2022-07-29T00:01:06;27.26;73.81
68450;SHT30;55434;39.570;2.652;2022-07-29T00:03:31;27.22;73.88
68450;SHT30;55434;39.570;2.652;2022-07-29T00:05:57;27.24;73.83
68450;SHT30;55434;39.570;2.652;2022-07-29T00:08:25;27.37;73.29
68450;SHT30;55434;39.570;2.652;2022-07-29T00:10:50;27.43;73.25
68450;SHT30;55434;39.570;2.652;2022-07-29T00:13:16;27.34;73.60
68450;SHT30;55434;39.570;2.652;2022-07-29T00:15:42;27.36;73.51
68450;SHT30;55434;39.570;2.652;2022-07-29T00:18:07;27.33;73.53
68450;SHT30;55434;39.570;2.652;2022-07-29T00:20:33;27.20;74.04
68450;SHT30;55434;39.570;2.652;2022-07-29T00:22:58;27.36;73.51
68450;SHT30;55434;39.570;2.652;2022-07-29T00:25:24;27.33;73.51
68450;SHT30;55434;39.570;2.652;2022-07-29T00:27:50;27.26;73.46
68450;SHT30;55434;39.570;2.652;2022-07-29T00:30:15;27.16;73.49
68450;SHT30;55434;39.570;2.652;2022-07-29T00:32:41;27.02;73.93
68450;SHT30;55434;39.570;2.652;2022-07-29T00:35:07;26.96;74.09
68450;SHT30;55434;39.570;2.652;2022-07-29T00:37:51;26.97;74.28
68450;SHT30;55434;39.570;2.652;2022-07-29T00:40:17;26.82;74.70
68450;SHT30;55434;39.570;2.652;2022-07-29T00:42:47;26.75;74.96
68450;SHT30;55434;39.570;2.652;2022-07-29T00:45:13;26.66;75.28
68450;SHT30;55434;39.570;2.652;2022-07-29T00:47:38;26.68;75.36
68450;SHT30;55434;39.570;2.652;2022-07-29T00:50:06;26.65;75.47
68450;SHT30;55434;39.570;2.652;2022-07-29T00:52:34;26.63;75.53
68450;SHT30;55434;39.570;2.652;2022-07-29T00:55:01;26.59;75.57
68450;SHT30;55434;39.570;2.652;2022-07-29T00:57:27;26.66;75.54
68450;SHT30;55434;39.570;2.652;2022-07-29T00:59:53;26.63;75.69
68450;SHT30;55434;39.570;2.652;2022-07-29T01:02:18;26.63;75.65
68450;SHT30;55434;39.570;2.652;2022-07-29T01:04:44;26.57;75.80
68450;SHT30;55434;39.570;2.652;2022-07-29T01:07:10;26.63;75.52
68450;SHT30;55434;39.570;2.652;2022-07-29T01:09:51;26.80;75.13
68450;SHT30;55434;39.570;2.652;2022-07-29T01:12:24;27.03;74.10
68450;SHT30;55434;39.570;2.652;2022-07-29T01:14:55;27.07;73.98
68450;SHT30;55434;39.570;2.652;2022-07-29T01:20:50;27.17;73.47
68450;SHT30;55434;39.570;2.652;2022-07-29T01:23:46;27.22;73.41
68450;SHT30;55434;39.570;2.652;2022-07-29T01:29:07;27.06;74.00
68450;SHT30;55434;39.570;2.652;2022-07-29T01:32:10;27.06;73.98
68450;SHT30;55434;39.570;2.652;2022-07-29T01:39:43;26.75;75.42
68450;SHT30;55434;39.570;2.652;2022-07-29T01:42:30;26.57;76.06
68450;SHT30;55434;39.570;2.652;2022-07-29T01:47:32;26.42;76.30
68450;SHT30;55434;39.570;2.652;2022-07-29T01:50:00;26.31;76.70
68450;SHT30;55434;39.570;2.652;2022-07-29T01:52:58;26.21;76.97
68450;SHT30;55434;39.570;2.652;2022-07-29T01:55:29;26.14;77.37
68450;SHT30;55434;39.570;2.652;2022-07-29T01:57:57;26.11;77.44
68450;SHT30;55434;39.570;2.652;2022-07-29T02:00:25;26.09;77.45
68450;SHT30;55434;39.570;2.652;2022-07-29T02:02:52;26.08;77.59
68450;SHT30;55434;39.570;2.652;2022-07-29T02:05:22;26.08;77.61
68450;SHT30;55434;39.570;2.652;2022-07-29T02:07:50;26.02;77.79
68450;SHT30;55434;39.570;2.652;2022-07-29T02:10:19;26.02;77.94
68450;SHT30;55434;39.570;2.652;2022-07-29T02:12:46;26.08;77.70
68450;SHT30;55434;39.570;2.652;2022-07-29T02:15:13;26.11;77.55
68450;SHT30;55434;39.570;2.652;2022-07-29T02:17:43;26.05;77.71
68450;SHT30;55434;39.570;2.652;2022-07-29T02:20:09;26.08;77.71
68450;SHT30;55434;39.570;2.652;2022-07-29T02:22:38;26.12;77.42
68450;SHT30;55434;39.570;2.652;2022-07-29T02:25:05;26.05;77.45
68450;SHT30;55434;39.570;2.652;2022-07-29T02:27:33;26.09;77.28
68450;SHT30;55434;39.570;2.652;2022-07-29T02:30:01;26.06;77.11
68450;SHT30;55434;39.570;2.652;2022-07-29T02:32:27;26.09;76.97
68450;SHT30;55434;39.570;2.652;2022-07-29T02:34:55;26.17;76.87
68450;SHT30;55434;39.570;2.652;2022-07-29T02:37:23;26.14;76.89
68450;SHT30;55434;39.570;2.652;2022-07-29T02:39:50;26.14;76.92
68450;SHT30;55434;39.570;2.652;2022-07-29T02:42:18;26.18;76.82
68450;SHT30;55434;39.570;2.652;2022-07-29T02:44:43;26.20;76.78
68450;SHT30;55434;39.570;2.652;2022-07-29T02:50:04;26.20;76.85
68450;SHT30;55434;39.570;2.652;2022-07-29T02:52:41;26.24;76.75
68450;SHT30;55434;39.570;2.652;2022-07-29T02:58:03;26.05;77.29
68450;SHT30;55434;39.570;2.652;2022-07-29T03:00:33;26.11;77.04
68450;SHT30;55434;39.570;2.652;2022-07-29T03:03:04;26.05;77.23
68450;SHT30;55434;39.570;2.652;2022-07-29T03:05:32;25.97;77.50
68450;SHT30;55434;39.570;2.652;2022-07-29T03:08:02;25.91;77.75
68450;SHT30;55434;39.570;2.652;2022-07-29T03:10:30;25.94;77.64
68450;SHT30;55434;39.570;2.652;2022-07-29T03:12:57;26.02;77.48
68450;SHT30;55434;39.570;2.652;2022-07-29T03:15:23;26.08;77.24
68450;SHT30;55434;39.570;2.652;2022-07-29T03:17:49;26.12;76.80
68450;SHT30;55434;39.570;2.652;2022-07-29T03:20:15;26.04;76.90
68450;SHT30;55434;39.570;2.652;2022-07-29T03:22:43;25.90;77.13
68450;SHT30;55434;39.570;2.652;2022-07-29T03:25:12;25.91;77.27
68450;SHT30;55434;39.570;2.652;2022-07-29T03:27:38;25.83;77.00
68450;SHT30;55434;39.570;2.652;2022-07-29T03:30:05;25.83;77.04
68450;SHT30;55434;39.570;2.652;2022-07-29T03:32:31;25.73;77.22
68450;SHT30;55434;39.570;2.652;2022-07-29T03:34:57;25.71;77.39
68450;SHT30;55434;39.570;2.652;2022-07-29T03:37:23;25.64;77.44
68450;SHT30;55434;39.570;2.652;2022-07-29T03:39:49;25.66;77.26
68450;SHT30;55434;39.570;2.652;2022-07-29T03:42:19;25.63;77.32
68450;SHT30;55434;39.570;2.652;2022-07-29T03:44:47;25.60;77.37
68450;SHT30;55434;39.570;2.652;2022-07-29T03:47:17;25.56;77.50
68450;SHT30;55434;39.570;2.652;2022-07-29T03:49:46;25.54;77.53
68450;SHT30;55434;39.570;2.652;2022-07-29T03:52:13;25.56;77.48
68450;SHT30;55434;39.570;2.652;2022-07-29T03:54:39;25.53;77.55
68450;SHT30;55434;39.570;2.652;2022-07-29T03:57:05;25.49;77.76
68450;SHT30;55434;39.570;2.652;2022-07-29T03:59:32;25.46;77.94
68450;SHT30;55434;39.570;2.652;2022-07-29T04:02:01;25.44;77.95
68450;SHT30;55434;39.570;2.652;2022-07-29T04:04:27;25.39;78.01
68450;SHT30;55434;39.570;2.652;2022-07-29T04:06:53;25.40;77.90
68450;SHT30;55434;39.570;2.652;2022-07-29T04:09:18;25.44;77.83
68450;SHT30;55434;39.570;2.652;2022-07-29T04:11:45;25.40;77.75
68450;SHT30;55434;39.570;2.652;2022-07-29T04:14:11;25.44;77.50
68450;SHT30;55434;39.570;2.652;2022-07-29T04:16:36;25.44;77.59
68450;SHT30;55434;39.570;2.652;2022-07-29T04:19:02;25.39;77.67
68450;SHT30;55434;39.570;2.652;2022-07-29T04:21:27;25.37;77.70
68450;SHT30;55434;39.570;2.652;2022-07-29T04:23:53;25.51;77.37
68450;SHT30;55434;39.570;2.652;2022-07-29T04:26:19;25.51;77.14
68450;SHT30;55434;39.570;2.652;2022-07-29T04:28:45;25.47;77.27
68450;SHT30;55434;39.570;2.652;2022-07-29T04:31:12;25.53;77.10
68450;SHT30;55434;39.570;2.652;2022-07-29T04:33:39;25.47;77.16
68450;SHT30;55434;39.570;2.652;2022-07-29T04:36:04;25.46;77.41
68450;SHT30;55434;39.570;2.652;2022-07-29T04:38:30;25.43;77.58
68450;SHT30;55434;39.570;2.652;2022-07-29T04:40:55;25.39;77.67
68450;SHT30;55434;39.570;2.652;2022-07-29T04:43:21;25.39;77.81
68450;SHT30;55434;39.570;2.652;2022-07-29T04:45:47;25.42;77.79
68450;SHT30;55434;39.570;2.652;2022-07-29T04:48:12;25.37;78.00
68450;SHT30;55434;39.570;2.652;2022-07-29T04:50:38;25.46;77.80
68450;SHT30;55434;39.570;2.652;2022-07-29T04:53:05;25.42;77.74
68450;SHT30;55434;39.570;2.652;2022-07-29T04:55:30;25.40;77.91
68450;SHT30;55434;39.570;2.652;2022-07-29T04:57:56;25.36;78.04
68450;SHT30;55434;39.570;2.652;2022-07-29T05:00:21;25.34;78.05
68450;SHT30;55434;39.570;2.652;2022-07-29T05:02:48;25.40;77.95
68450;SHT30;55434;39.570;2.652;2022-07-29T05:05:14;25.42;77.91
68450;SHT30;55434;39.570;2.652;2022-07-29T05:07:40;25.43;77.76
68450;SHT30;55434;39.570;2.652;2022-07-29T05:10:05;25.46;77.82
68450;SHT30;55434;39.570;2.652;2022-07-29T05:12:31;25.40;78.03
68450;SHT30;55434;39.570;2.652;2022-07-29T05:14:56;25.39;78.07
68450;SHT30;55434;39.570;2.652;2022-07-29T05:17:22;25.36;78.11
68450;SHT30;55434;39.570;2.652;2022-07-29T05:19:47;25.37;78.22
68450;SHT30;55434;39.570;2.652;2022-07-29T05:22:13;25.33;78.37
68450;SHT30;55434;39.570;2.652;2022-07-29T05:24:39;25.34;78.22
68450;SHT30;55434;39.570;2.652;2022-07-29T05:27:04;25.36;78.17
68450;SHT30;55434;39.570;2.652;2022-07-29T05:29:30;25.32;78.24
68450;SHT30;55434;39.570;2.652;2022-07-29T05:31:55;25.39;78.13
68450;SHT30;55434;39.570;2.652;2022-07-29T05:34:21;25.40;78.11
68450;SHT30;55434;39.570;2.652;2022-07-29T05:36:46;25.39;78.22
68450;SHT30;55434;39.570;2.652;2022-07-29T05:39:12;25.42;78.11
68450;SHT30;55434;39.570;2.652;2022-07-29T05:41:38;25.47;77.93
68450;SHT30;55434;39.570;2.652;2022-07-29T05:44:04;25.54;77.78
68450;SHT30;55434;39.570;2.652;2022-07-29T05:46:29;25.60;77.50
68450;SHT30;55434;39.570;2.652;2022-07-29T05:48:55;25.67;77.38
68450;SHT30;55434;39.570;2.652;2022-07-29T05:51:21;25.71;77.25
68450;SHT30;55434;39.570;2.652;2022-07-29T05:53:47;25.78;77.08
68450;SHT30;55434;39.570;2.652;2022-07-29T05:56:12;25.80;77.05
68450;SHT30;55434;39.570;2.652;2022-07-29T05:58:38;25.95;76.54
68450;SHT30;55434;39.570;2.652;2022-07-29T06:01:07;26.01;76.08
68450;SHT30;55434;39.570;2.652;2022-07-29T06:03:33;26.02;76.13
68450;SHT30;55434;39.570;2.652;2022-07-29T06:05:59;26.05;76.04
68450;SHT30;55434;39.570;2.652;2022-07-29T06:08:25;26.14;75.63
68450;SHT30;55434;39.570;2.652;2022-07-29T06:10:51;26.18;75.45
68450;SHT30;55434;39.570;2.652;2022-07-29T06:13:16;26.21;75.25
68450;SHT30;55434;39.570;2.652;2022-07-29T06:15:43;26.22;75.02
68450;SHT30;55434;39.570;2.652;2022-07-29T06:18:09;26.24;75.09
68450;SHT30;55434;39.570;2.652;2022-07-29T06:20:35;26.29;75.04
68450;SHT30;55434;39.570;2.652;2022-07-29T06:23:01;26.35;74.68
68450;SHT30;55434;39.570;2.652;2022-07-29T06:25:30;26.44;74.43
68450;SHT30;55434;39.570;2.652;2022-07-29T06:27:56;26.49;74.30
68450;SHT30;55434;39.570;2.652;2022-07-29T06:30:21;26.56;74.24
68450;SHT30;55434;39.570;2.652;2022-07-29T06:32:47;26.60;73.99
68450;SHT30;55434;39.570;2.652;2022-07-29T06:35:13;26.63;74.14
68450;SHT30;55434;39.570;2.652;2022-07-29T06:37:38;26.82;73.31
68450;SHT30;55434;39.570;2.652;2022-07-29T06:40:04;26.99;72.94
68450;SHT30;55434;39.570;2.652;2022-07-29T06:42:49;27.10;72.72
68450;SHT30;55434;39.570;2.652;2022-07-29T06:45:14;27.16;72.40
68450;SHT30;55434;39.570;2.652;2022-07-29T06:47:41;27.23;72.23
68450;SHT30;55434;39.570;2.652;2022-07-29T06:50:07;27.24;72.12
68450;SHT30;55434;39.570;2.652;2022-07-29T06:52:39;27.30;71.92
68450;SHT30;55434;39.570;2.652;2022-07-29T06:55:06;27.31;71.80
68450;SHT30;55434;39.570;2.652;2022-07-29T06:57:32;27.38;71.63
68450;SHT30;55434;39.570;2.652;2022-07-29T06:59:58;27.44;71.30
68450;SHT30;55434;39.570;2.652;2022-07-29T07:02:25;27.51;71.11
68450;SHT30;55434;39.570;2.652;2022-07-29T07:04:51;27.58;70.68
68450;SHT30;55434;39.570;2.652;2022-07-29T07:07:16;27.62;70.44
68450;SHT30;55434;39.570;2.652;2022-07-29T07:09:42;27.67;70.18
68450;SHT30;55434;39.570;2.652;2022-07-29T07:12:08;27.62;69.72
68450;SHT30;55434;39.570;2.652;2022-07-29T07:14:34;27.53;69.85
68450;SHT30;55434;39.570;2.652;2022-07-29T07:16:59;27.54;69.99
68450;SHT30;55434;39.570;2.652;2022-07-29T07:19:29;27.61;69.68
68450;SHT30;55434;39.570;2.652;2022-07-29T07:21:55;27.61;69.68
68450;SHT30;55434;39.570;2.652;2022-07-29T07:24:21;27.64;69.47
68450;SHT30;55434;39.570;2.652;2022-07-29T07:26:47;27.64;69.44
68450;SHT30;55434;39.570;2.652;2022-07-29T07:29:13;27.78;69.04
68450;SHT30;55434;39.570;2.652;2022-07-29T07:31:38;27.75;68.74
68450;SHT30;55434;39.570;2.652;2022-07-29T07:34:04;27.85;68.53
68450;SHT30;55434;39.570;2.652;2022-07-29T07:36:29;27.88;68.33
68450;SHT30;55434;39.570;2.652;2022-07-29T07:38:55;27.95;67.90
68450;SHT30;55434;39.570;2.652;2022-07-29T07:41:21;28.01;67.68
68450;SHT30;55434;39.570;2.652;2022-07-29T07:43:46;28.04;67.76
68450;SHT30;55434;39.570;2.652;2022-07-29T07:46:12;28.25;66.82
68450;SHT30;55434;39.570;2.652;2022-07-29T07:48:38;28.33;66.52
68450;SHT30;55434;39.570;2.652;2022-07-29T07:51:03;28.31;66.32
68450;SHT30;55434;39.570;2.652;2022-07-29T07:53:29;28.33;65.82
68450;SHT30;55434;39.570;2.652;2022-07-29T07:55:55;28.38;65.76
68450;SHT30;55434;39.570;2.652;2022-07-29T07:58:21;28.47;65.18
68450;SHT30;55434;39.570;2.652;2022-07-29T08:00:46;28.55;65.16
68450;SHT30;55434;39.570;2.652;2022-07-29T08:03:12;28.60;64.66
68450;SHT30;55434;39.570;2.652;2022-07-29T08:05:39;28.55;63.67
68450;SHT30;55434;39.570;2.652;2022-07-29T08:08:05;28.59;63.97
68450;SHT30;55434;39.570;2.652;2022-07-29T08:10:30;28.64;63.87
68450;SHT30;55434;39.570;2.652;2022-07-29T08:13:14;28.71;63.82
68450;SHT30;55434;39.570;2.652;2022-07-29T08:15:40;28.61;64.34
68450;SHT30;55434;39.570;2.652;2022-07-29T08:18:10;28.61;63.95
68450;SHT30;55434;39.570;2.652;2022-07-29T08:20:36;28.53;64.15
68450;SHT30;55434;39.570;2.652;2022-07-29T08:23:04;28.63;63.24
68450;SHT30;55434;39.570;2.652;2022-07-29T08:25:32;28.80;61.48
68450;SHT30;55434;39.570;2.652;2022-07-29T08:27:58;28.89;61.30
68450;SHT30;55434;39.570;2.652;2022-07-29T08:30:30;28.86;61.64
68450;SHT30;55434;39.570;2.652;2022-07-29T08:32:58;28.89;63.18
68450;SHT30;55434;39.570;2.652;2022-07-29T08:35:24;28.90;63.38
68450;SHT30;55434;39.570;2.652;2022-07-29T08:37:51;28.91;62.73
68450;SHT30;55434;39.570;2.652;2022-07-29T08:40:17;29.04;62.23
68450;SHT30;55434;39.570;2.652;2022-07-29T08:42:42;29.03;62.13
68450;SHT30;55434;39.570;2.652;2022-07-29T08:45:08;29.08;61.74
68450;SHT30;55434;39.570;2.652;2022-07-29T08:47:35;29.07;62.07
68450;SHT30;55434;39.570;2.652;2022-07-29T08:50:11;29.10;61.91
68450;SHT30;55434;39.570;2.652;2022-07-29T08:52:39;29.17;60.92
68450;SHT30;55434;39.570;2.652;2022-07-29T08:55:09;29.21;60.73
68450;SHT30;55434;39.570;2.652;2022-07-29T08:57:35;29.25;61.02
68450;SHT30;55434;39.570;2.652;2022-07-29T09:00:03;29.37;60.76
68450;SHT30;55434;39.570;2.652;2022-07-29T09:02:35;29.47;60.40
68450;SHT30;55434;39.570;2.652;2022-07-29T09:05:01;29.47;60.02
68450;SHT30;55434;39.570;2.652;2022-07-29T09:07:28;29.55;60.30
68450;SHT30;55434;39.570;2.652;2022-07-29T09:09:53;29.63;60.26
68450;SHT30;55434;39.570;2.652;2022-07-29T09:12:19;29.57;59.96
68450;SHT30;55434;39.570;2.652;2022-07-29T09:14:47;29.62;60.16
68450;SHT30;55434;39.570;2.652;2022-07-29T09:17:13;29.61;60.10
68450;SHT30;55434;39.570;2.652;2022-07-29T09:19:42;29.66;59.60
68450;SHT30;55434;39.570;2.652;2022-07-29T09:22:07;29.68;59.92
68450;SHT30;55434;39.570;2.652;2022-07-29T09:24:38;29.86;59.84
68450;SHT30;55434;39.570;2.652;2022-07-29T09:27:23;30.08;57.51
68450;SHT30;55434;39.570;2.652;2022-07-29T09:30:06;30.14;57.39
68450;SHT30;55434;39.570;2.652;2022-07-29T09:32:33;30.05;57.70
68450;SHT30;55434;39.570;2.652;2022-07-29T09:35:25;30.10;57.60
68450;SHT30;55434;39.570;2.652;2022-07-29T09:37:51;30.16;57.90
68450;SHT30;55434;39.570;2.652;2022-07-29T09:40:22;30.29;57.58
68450;SHT30;55434;39.570;2.652;2022-07-29T09:42:48;30.43;57.24
68450;SHT30;55434;39.570;2.652;2022-07-29T09:45:31;30.75;56.41
68450;SHT30;55434;39.570;2.652;2022-07-29T09:47:57;30.80;56.23
68450;SHT30;55434;39.570;2.652;2022-07-29T09:50:42;30.83;56.24
68450;SHT30;55434;39.570;2.652;2022-07-29T09:53:09;30.99;55.87
68450;SHT30;55434;39.570;2.652;2022-07-29T09:55:50;31.10;56.91
68450;SHT30;55434;39.570;2.652;2022-07-29T09:58:21;30.96;57.01
68450;SHT30;55434;39.570;2.652;2022-07-29T10:00:49;30.84;57.22
68450;SHT30;55434;39.570;2.652;2022-07-29T10:03:15;31.10;56.69
68450;SHT30;55434;39.570;2.652;2022-07-29T10:05:41;31.24;56.51
68450;SHT30;55434;39.570;2.652;2022-07-29T10:08:08;31.22;56.44
68450;SHT30;55434;39.570;2.652;2022-07-29T10:10:40;31.21;56.93
68450;SHT30;55434;39.570;2.652;2022-07-29T10:13:14;31.34;56.25
68450;SHT30;55434;39.570;2.652;2022-07-29T10:15:41;31.46;55.59
68450;SHT30;55434;39.570;2.652;2022-07-29T10:18:10;31.52;55.44
68450;SHT30;55434;39.570;2.652;2022-07-29T10:20:37;31.83;54.90
68450;SHT30;55434;39.570;2.652;2022-07-29T10:23:03;31.93;54.55
68450;SHT30;55434;39.570;2.652;2022-07-29T10:25:29;31.93;54.33
68450;SHT30;55434;39.570;2.652;2022-07-29T10:27:55;31.94;54.51
68450;SHT30;55434;39.570;2.652;2022-07-29T10:30:22;31.86;57.25
68450;SHT30;55434;39.570;2.652;2022-07-29T10:46:20;34.14;52.81
68450;SHT30;55434;39.570;2.652;2022-07-29T10:49:11;34.49;52.30
68450;SHT30;55434;39.570;2.652;2022-07-29T10:51:59;34.49;52.19
68450;SHT30;55434;39.570;2.652;2022-07-29T10:54:38;34.61;51.98
68450;SHT30;55434;39.570;2.652;2022-07-29T11:05:16;36.01;49.27
68450;SHT30;55434;39.570;2.652;2022-07-29T11:10:37;35.57;50.55
68450;SHT30;55434;39.570;2.652;2022-07-29T11:13:03;36.23;49.11
68450;SHT30;55434;39.570;2.652;2022-07-29T11:15:29;35.98;50.36
68450;SHT30;55434;39.570;2.652;2022-07-29T11:18:14;35.47;51.92
68450;SHT30;55434;39.570;2.652;2022-07-29T11:20:46;35.25;52.27
68450;SHT30;55434;39.570;2.652;2022-07-29T11:26:18;34.34;54.69
68450;SHT30;55434;39.570;2.652;2022-07-29T11:28:51;34.67;54.41
68450;SHT30;55434;39.570;2.652;2022-07-29T11:31:39;35.54;52.30
68450;SHT30;55434;39.570;2.652;2022-07-29T11:39:43;34.94;53.72
68450;SHT30;55434;39.570;2.652;2022-07-29T11:45:01;35.46;52.31
68450;SHT30;55434;39.570;2.652;2022-07-29T11:47:28;35.49;52.13
68450;SHT30;55434;39.570;2.652;2022-07-29T11:49:55;36.11;50.96
68450;SHT30;55434;39.570;2.652;2022-07-29T11:52:23;36.24;51.09
68450;SHT30;55434;39.570;2.652;2022-07-29T11:54:49;35.73;51.91
68450;SHT30;55434;39.570;2.652;2022-07-29T11:57:19;35.91;51.14
68450;SHT30;55434;39.570;2.652;2022-07-29T11:59:46;35.93;51.29
68450;SHT30;55434;39.570;2.652;2022-07-29T12:02:13;35.93;51.28
68450;SHT30;55434;39.570;2.652;2022-07-29T12:04:55;35.73;51.60
68450;SHT30;55434;39.570;2.652;2022-07-29T12:07:28;35.73;51.87
68450;SHT30;55434;39.570;2.652;2022-07-29T12:09:54;35.25;52.56
68450;SHT30;55434;39.570;2.652;2022-07-29T12:12:21;35.89;51.60
68450;SHT30;55434;39.570;2.652;2022-07-29T12:14:47;35.74;51.76
68450;SHT30;55434;39.570;2.652;2022-07-29T12:19:51;35.53;52.33
68450;SHT30;55434;39.570;2.652;2022-07-29T12:22:25;35.50;52.69
68450;SHT30;55434;39.570;2.652;2022-07-29T12:24:51;35.61;52.45
68450;SHT30;55434;39.570;2.652;2022-07-29T12:27:17;35.50;52.49
68450;SHT30;55434;39.570;2.652;2022-07-29T12:29:43;35.45;53.07
68450;SHT30;55434;39.570;2.652;2022-07-29T12:32:08;35.51;52.16
68450;SHT30;55434;39.570;2.652;2022-07-29T12:34:34;35.29;52.70
68450;SHT30;55434;39.570;2.652;2022-07-29T12:37:00;35.73;51.84
68450;SHT30;55434;39.570;2.652;2022-07-29T12:39:26;35.72;52.28
68450;SHT30;55434;39.570;2.652;2022-07-29T12:41:53;35.59;52.04
68450;SHT30;55434;39.570;2.652;2022-07-29T12:44:19;35.76;51.63
68450;SHT30;55434;39.570;2.652;2022-07-29T12:46:45;35.66;51.37
68450;SHT30;55434;39.570;2.652;2022-07-29T12:49:21;35.94;50.92
68450;SHT30;55434;39.570;2.652;2022-07-29T12:51:48;35.69;51.11
68450;SHT30;55434;39.570;2.652;2022-07-29T12:54:14;35.79;51.43
68450;SHT30;55434;39.570;2.652;2022-07-29T12:56:41;35.83;51.66
68450;SHT30;55434;39.570;2.652;2022-07-29T12:59:21;35.73;51.78
68450;SHT30;55434;39.570;2.652;2022-07-29T13:01:49;35.64;51.73
68450;SHT30;55434;39.570;2.652;2022-07-29T13:04:29;35.38;51.33
68450;SHT30;55434;39.570;2.652;2022-07-29T13:07:02;35.19;51.65
68450;SHT30;55434;39.570;2.652;2022-07-29T13:09:42;35.35;51.64
68450;SHT30;55434;39.570;2.652;2022-07-29T13:12:09;35.51;51.80
68450;SHT30;55434;39.570;2.652;2022-07-29T13:14:43;35.46;51.89
68450;SHT30;55434;39.570;2.652;2022-07-29T13:17:11;35.67;51.37
68450;SHT30;55434;39.570;2.652;2022-07-29T13:22:03;35.26;52.52
68450;SHT30;55434;39.570;2.652;2022-07-29T13:24:29;35.69;51.49
68450;SHT30;55434;39.570;2.652;2022-07-29T13:26:54;35.32;52.21
68450;SHT30;55434;39.570;2.652;2022-07-29T13:29:20;35.05;52.69
68450;SHT30;55434;39.570;2.652;2022-07-29T13:31:45;34.95;53.51
68450;SHT30;55434;39.570;2.652;2022-07-29T13:34:11;34.71;54.32
68450;SHT30;55434;39.570;2.652;2022-07-29T13:36:36;35.16;53.16
68450;SHT30;55434;39.570;2.652;2022-07-29T13:39:03;34.99;53.18
68450;SHT30;55434;39.570;2.652;2022-07-29T13:41:31;34.65;53.75
68450;SHT30;55434;39.570;2.652;2022-07-29T13:43:57;34.88;53.55
68450;SHT30;55434;39.570;2.652;2022-07-29T13:46:23;34.87;53.85
68450;SHT30;55434;39.570;2.652;2022-07-29T13:48:48;34.71;54.30
68450;SHT30;55434;39.570;2.652;2022-07-29T13:51:14;34.87;53.93
68450;SHT30;55434;39.570;2.652;2022-07-29T13:53:40;34.94;53.61
68450;SHT30;55434;39.570;2.652;2022-07-29T13:56:05;34.91;53.92
68450;SHT30;55434;39.570;2.652;2022-07-29T13:58:32;34.81;53.96
68450;SHT30;55434;39.570;2.652;2022-07-29T14:01:01;34.57;54.48
68450;SHT30;55434;39.570;2.652;2022-07-29T14:07:19;34.20;55.64
68450;SHT30;55434;39.570;2.652;2022-07-29T14:10:35;34.14;55.49
68450;SHT30;55434;39.570;2.652;2022-07-29T14:12:58;33.77;57.21
68450;SHT30;55434;39.570;2.652;2022-07-29T14:15:23;33.86;56.71
68450;SHT30;55434;39.570;2.652;2022-07-29T14:17:51;34.01;56.57
68450;SHT30;55434;39.570;2.652;2022-07-29T14:20:17;34.07;56.66
68450;SHT30;55434;39.570;2.652;2022-07-29T14:22:43;34.13;56.62
68450;SHT30;55434;39.570;2.652;2022-07-29T14:25:08;34.11;56.59
68450;SHT30;55434;39.570;2.652;2022-07-29T14:27:34;34.08;56.33
68450;SHT30;55434;39.570;2.652;2022-07-29T14:30:00;34.04;56.95
68450;SHT30;55434;39.570;2.652;2022-07-29T14:32:30;34.01;57.18
68450;SHT30;55434;39.570;2.652;2022-07-29T14:34:56;34.58;55.73
68450;SHT30;55434;39.570;2.652;2022-07-29T14:37:21;34.81;55.27
68450;SHT30;55434;39.570;2.652;2022-07-29T14:39:47;34.87;54.83
68450;SHT30;55434;39.570;2.652;2022-07-29T14:42:13;34.87;54.65
68450;SHT30;55434;39.570;2.652;2022-07-29T14:44:42;34.64;55.25
68450;SHT30;55434;39.570;2.652;2022-07-29T14:47:07;34.84;54.82
68450;SHT30;55434;39.570;2.652;2022-07-29T14:49:33;35.13;54.37
68450;SHT30;55434;39.570;2.652;2022-07-29T14:51:59;35.77;52.96
68450;SHT30;55434;39.570;2.652;2022-07-29T14:54:25;35.19;54.14
68450;SHT30;55434;39.570;2.652;2022-07-29T14:56:50;35.46;53.78
68450;SHT30;55434;39.570;2.652;2022-07-29T14:59:18;35.30;53.74
68450;SHT30;55434;39.570;2.652;2022-07-29T15:01:44;35.22;54.53
68450;SHT30;55434;39.570;2.652;2022-07-29T15:04:09;35.57;53.80
68450;SHT30;55434;39.570;2.652;2022-07-29T15:06:35;35.28;54.58
68450;SHT30;55434;39.570;2.652;2022-07-29T15:09:01;35.56;53.61
68450;SHT30;55434;39.570;2.652;2022-07-29T15:11:27;35.10;54.15
68450;SHT30;55434;39.570;2.652;2022-07-29T15:13:52;35.42;53.79
68450;SHT30;55434;39.570;2.652;2022-07-29T15:16:18;35.13;54.66
68450;SHT30;55434;39.570;2.652;2022-07-29T15:18:44;35.09;54.82
68450;SHT30;55434;39.570;2.652;2022-07-29T15:21:09;34.98;54.94
68450;SHT30;55434;39.570;2.652;2022-07-29T15:23:35;34.99;54.95
68450;SHT30;55434;39.570;2.652;2022-07-29T15:26:02;35.00;54.80
68450;SHT30;55434;39.570;2.652;2022-07-29T15:28:28;35.35;54.30
68450;SHT30;55434;39.570;2.652;2022-07-29T15:30:54;34.96;54.67
68450;SHT30;55434;39.570;2.652;2022-07-29T15:33:22;35.39;54.06
68450;SHT30;55434;39.570;2.652;2022-07-29T15:38:16;34.84;55.19
68450;SHT30;55434;39.570;2.652;2022-07-29T15:40:42;35.06;54.68
68450;SHT30;55434;39.570;2.652;2022-07-29T15:43:09;35.22;54.47
68450;SHT30;55434;39.570;2.652;2022-07-29T15:45:39;35.28;53.87
68450;SHT30;55434;39.570;2.652;2022-07-29T15:48:06;34.74;54.78
68450;SHT30;55434;39.570;2.652;2022-07-29T15:50:32;35.06;54.68
68450;SHT30;55434;39.570;2.652;2022-07-29T15:52:59;34.88;55.01
68450;SHT30;55434;39.570;2.652;2022-07-29T15:55:25;35.06;54.42
68450;SHT30;55434;39.570;2.652;2022-07-29T15:57:51;35.09;54.61
68450;SHT30;55434;39.570;2.652;2022-07-29T16:00:17;34.77;55.21
68450;SHT30;55434;39.570;2.652;2022-07-29T16:02:45;34.36;56.47
68450;SHT30;55434;39.570;2.652;2022-07-29T16:05:10;34.87;55.18
68450;SHT30;55434;39.570;2.652;2022-07-29T16:07:36;34.65;55.88
68450;SHT30;55434;39.570;2.652;2022-07-29T16:10:02;34.85;55.41
68450;SHT30;55434;39.570;2.652;2022-07-29T16:12:28;34.95;55.04
68450;SHT30;55434;39.570;2.652;2022-07-29T16:14:54;34.82;55.66
68450;SHT30;55434;39.570;2.652;2022-07-29T16:17:19;34.57;55.97
68450;SHT30;55434;39.570;2.652;2022-07-29T16:19:45;34.68;55.80
68450;SHT30;55434;39.570;2.652;2022-07-29T16:22:11;34.40;56.43
68450;SHT30;55434;39.570;2.652;2022-07-29T16:24:37;34.20;56.83
68450;SHT30;55434;39.570;2.652;2022-07-29T16:27:03;34.33;56.61
68450;SHT30;55434;39.570;2.652;2022-07-29T16:29:29;33.96;57.31
68450;SHT30;55434;39.570;2.652;2022-07-29T16:31:55;34.07;57.40
68450;SHT30;55434;39.570;2.652;2022-07-29T16:34:22;34.10;57.22
68450;SHT30;55434;39.570;2.652;2022-07-29T16:36:47;34.11;57.42
68450;SHT30;55434;39.570;2.652;2022-07-29T16:39:13;33.87;57.79
68450;SHT30;55434;39.570;2.652;2022-07-29T16:41:39;33.69;58.57